Time;durP1;ratioP1;P1;durP2;ratioP2;P2;SDS_P1;SDS_P2;PMS_P1;PMS_P2;Temp;Humidity;BMP_temperature;BMP_pressure;BME280_temperature;BME280_humidity;BME280_pressure;Samples;Min_cycle;Max_cycle;Signal;HPM_P1;HPM_P2
2023/01/06 00:01:30;;;;;;;3.28;2.20;;;13.50;79.70;;;;;;5055450;28;20033;-82
2023/01/06 00:03:57;;;;;;;3.40;2.13;;;13.50;79.80;;;;;;5088833;28;20094;-82
2023/01/06 00:06:26;;;;;;;3.28;2.40;;;13.50;79.80;;;;;;5039197;28;20123;-82
2023/01/06 00:08:54;;;;;;;3.13;2.03;;;13.50;79.80;;;;;;5056197;28;20478;-82
2023/01/06 00:11:20;;;;;;;3.25;2.35;;;13.50;79.80;;;;;;5056965;28;20028;-83
2023/01/06 00:13:45;;;;;;;3.38;2.35;;;13.50;79.70;;;;;;5054979;28;20025;-81
2023/01/06 00:16:15;;;;;;;3.88;2.40;;;13.50;79.80;;;;;;5055211;28;20096;-82
2023/01/06 00:18:41;;;;;;;3.10;2.15;;;13.50;79.80;;;;;;5056045;28;20477;-81
2023/01/06 00:21:08;;;;;;;2.85;2.38;;;13.50;79.80;;;;;;5038039;28;20036;-82
2023/01/06 00:23:35;;;;;;;2.58;2.20;;;13.50;79.80;;;;;;5056147;28;20033;-82
2023/01/06 00:26:02;;;;;;;3.75;2.55;;;13.50;79.80;;;;;;5056293;28;20029;-82
2023/01/06 00:28:28;;;;;;;2.75;2.22;;;13.50;79.80;;;;;;5039019;28;20081;-82
2023/01/06 00:30:54;;;;;;;3.38;2.25;;;13.50;79.80;;;;;;5054771;28;20055;-81
2023/01/06 00:33:20;;;;;;;2.67;2.17;;;13.50;79.80;;;;;;5038164;28;20029;-83
2023/01/06 00:35:46;;;;;;;2.78;2.10;;;13.50;79.80;;;;;;5054701;28;20381;-81
2023/01/06 00:38:11;;;;;;;2.63;2.05;;;13.50;79.80;;;;;;5055230;28;20465;-81
2023/01/06 00:40:37;;;;;;;2.80;2.20;;;13.50;79.80;;;;;;5054643;28;20044;-81
2023/01/06 00:43:04;;;;;;;2.83;2.30;;;13.50;79.80;;;;;;5054649;28;20029;-83
2023/01/06 00:45:30;;;;;;;3.10;2.20;;;13.50;79.80;;;;;;5088023;28;20528;-81
2023/01/06 00:47:56;;;;;;;2.65;2.17;;;13.50;79.80;;;;;;5070773;28;20111;-82
2023/01/06 00:50:22;;;;;;;2.78;2.13;;;13.50;79.80;;;;;;5070904;28;20036;-82
2023/01/06 00:52:48;;;;;;;2.78;2.05;;;13.50;79.80;;;;;;5037596;28;20052;-82
2023/01/06 00:55:14;;;;;;;3.58;2.30;;;13.50;79.80;;;;;;5037537;28;20029;-83
2023/01/06 00:57:41;;;;;;;2.75;2.22;;;13.50;79.80;;;;;;5054607;28;20106;-82
2023/01/06 01:00:08;;;;;;;2.58;2.13;;;13.50;79.80;;;;;;5070524;28;20053;-82
2023/01/06 01:02:34;;;;;;;2.17;1.90;;;13.50;79.80;;;;;;5055104;28;20025;-82
2023/01/06 01:05:00;;;;;;;2.22;1.90;;;13.50;79.80;;;;;;5054028;28;20099;-82
2023/01/06 01:07:26;;;;;;;2.28;2.08;;;13.50;79.80;;;;;;5053773;28;20482;-82
2023/01/06 01:09:52;;;;;;;3.00;2.17;;;13.50;79.80;;;;;;5087591;28;20032;-82
2023/01/06 01:12:19;;;;;;;2.65;2.13;;;13.40;79.70;;;;;;5070334;28;20110;-82
2023/01/06 01:14:51;;;;;;;3.13;2.20;;;13.40;79.70;;;;;;5053755;28;20037;-82
2023/01/06 01:17:23;;;;;;;3.80;2.28;;;13.50;79.80;;;;;;5053727;28;20029;-82
2023/01/06 01:19:50;;;;;;;2.55;1.90;;;13.50;79.80;;;;;;5053808;28;20080;-82
2023/01/06 01:22:16;;;;;;;3.45;2.20;;;13.50;79.80;;;;;;5053740;28;20029;-83
2023/01/06 01:24:42;;;;;;;2.90;2.10;;;13.50;79.80;;;;;;5070114;28;20469;-83
2023/01/06 01:27:11;;;;;;;2.47;1.83;;;13.50;79.80;;;;;;5037655;28;20082;-82
2023/01/06 01:29:37;;;;;;;2.25;1.90;;;13.50;79.80;;;;;;5055121;28;20136;-82
2023/01/06 01:32:03;;;;;;;3.35;2.10;;;13.50;79.80;;;;;;5036829;28;20056;-82
2023/01/06 01:34:29;;;;;;;2.72;2.00;;;13.50;79.80;;;;;;5053272;28;20036;-82
2023/01/06 01:36:55;;;;;;;2.90;2.00;;;13.40;79.70;;;;;;5036685;28;20025;-81
2023/01/06 01:39:25;;;;;;;2.20;2.00;;;13.40;79.70;;;;;;5036319;28;20135;-82
2023/01/06 01:41:51;;;;;;;2.15;1.90;;;13.50;79.80;;;;;;5052757;28;20094;-81
2023/01/06 01:44:56;;;;;;;2.53;2.03;;;13.50;79.80;;;;;;5053543;28;20077;-82
2023/01/06 01:47:47;;;;;;;2.20;1.90;;;13.40;79.80;;;;;;5054306;28;20055;-82
2023/01/06 01:50:35;;;;;;;1.80;1.60;;;13.50;79.80;;;;;;5052438;28;20029;-83
2023/01/06 01:53:25;;;;;;;3.67;1.90;;;13.40;79.70;;;;;;5053352;28;20032;-83
2023/01/06 01:55:54;;;;;;;2.47;1.90;;;13.40;79.80;;;;;;5053224;28;20542;-81
2023/01/06 01:58:27;;;;;;;3.05;2.00;;;13.50;79.80;;;;;;5070280;28;20454;-82
2023/01/06 02:00:54;;;;;;;2.70;2.05;;;13.40;79.70;;;;;;5052948;28;20131;-83
2023/01/06 02:03:23;;;;;;;2.72;2.20;;;13.50;79.80;;;;;;5036973;28;20063;-82
2023/01/06 02:05:53;;;;;;;2.28;2.00;;;13.50;79.80;;;;;;5053011;28;20047;-82
2023/01/06 02:08:52;;;;;;;2.22;2.03;;;13.50;79.80;;;;;;5053045;28;20547;-81
2023/01/06 02:11:18;;;;;;;2.47;1.73;;;13.40;79.80;;;;;;5078196;28;20033;-82
2023/01/06 02:13:53;;;;;;;2.53;2.00;;;13.40;79.70;;;;;;5068491;28;20067;-81
2023/01/06 02:16:26;;;;;;;2.55;2.00;;;13.50;79.80;;;;;;5068941;28;20029;-82
2023/01/06 02:19:18;;;;;;;2.53;2.08;;;13.40;79.80;;;;;;5052670;28;20044;-82
2023/01/06 02:21:59;;;;;;;2.55;2.00;;;13.40;79.80;;;;;;5052686;28;20028;-82
2023/01/06 02:25:08;;;;;;;2.40;1.80;;;13.40;79.70;;;;;;5052578;28;20061;-82
2023/01/06 02:27:50;;;;;;;3.03;1.80;;;13.50;79.80;;;;;;5053380;28;20341;-82
2023/01/06 02:30:32;;;;;;;2.10;1.67;;;13.40;79.70;;;;;;5053256;28;20090;-83
2023/01/06 02:33:16;;;;;;;1.92;1.75;;;13.40;79.70;;;;;;5052291;28;20033;-82
2023/01/06 02:36:01;;;;;;;2.15;1.73;;;13.40;79.80;;;;;;5052509;28;20025;-82
2023/01/06 02:38:41;;;;;;;2.17;1.63;;;13.40;79.80;;;;;;5052388;28;20059;-82
2023/01/06 02:41:32;;;;;;;1.80;1.50;;;13.40;79.80;;;;;;5052563;28;20051;-82
2023/01/06 02:44:26;;;;;;;2.25;1.75;;;13.40;79.80;;;;;;5052245;28;20492;-82
2023/01/06 02:47:18;;;;;;;1.90;1.63;;;13.40;79.80;;;;;;5068851;28;20469;-82
2023/01/06 02:50:10;;;;;;;2.25;1.50;;;13.40;79.80;;;;;;5052302;28;20029;-81
2023/01/06 02:53:01;;;;;;;1.60;1.50;;;13.40;79.80;;;;;;5052271;28;20053;-82
2023/01/06 02:55:48;;;;;;;1.77;1.67;;;13.40;79.80;;;;;;5052752;28;20029;-82
2023/01/06 02:58:25;;;;;;;1.85;1.52;;;13.40;79.80;;;;;;5068799;28;20466;-81
2023/01/06 03:00:58;;;;;;;1.70;1.60;;;13.40;79.80;;;;;;5057271;28;20052;-82
2023/01/06 03:03:29;;;;;;;1.60;1.50;;;13.40;79.80;;;;;;5058946;28;20086;-83
2023/01/06 03:06:02;;;;;;;1.80;1.58;;;13.40;79.80;;;;;;5075461;28;20098;-81
2023/01/06 03:08:30;;;;;;;1.98;1.58;;;13.40;79.80;;;;;;5059003;28;20029;-82
2023/01/06 03:10:59;;;;;;;2.20;1.50;;;13.40;79.80;;;;;;5058658;28;20021;-82
2023/01/06 03:13:49;;;;;;;1.90;1.45;;;13.40;79.80;;;;;;5075180;28;20041;-81
2023/01/06 03:16:17;;;;;;;2.13;1.73;;;13.40;79.80;;;;;;5058400;28;20029;-82
2023/01/06 03:18:45;;;;;;;1.92;1.73;;;13.40;79.70;;;;;;5058635;28;20040;-81
2023/01/06 03:21:15;;;;;;;2.00;1.65;;;13.40;79.80;;;;;;5058444;28;20111;-82
2023/01/06 03:23:44;;;;;;;1.60;1.50;;;13.40;79.80;;;;;;5059522;28;20021;-81
2023/01/06 03:26:10;;;;;;;1.90;1.67;;;13.40;79.80;;;;;;5092704;28;20524;-82
2023/01/06 03:28:36;;;;;;;1.92;1.60;;;13.40;79.80;;;;;;5041862;28;20033;-81
2023/01/06 03:31:46;;;;;;;1.52;1.40;;;13.40;79.80;;;;;;5041955;28;20029;-83
2023/01/06 03:34:21;;;;;;;1.75;1.50;;;13.40;79.80;;;;;;5075918;28;20029;-82
2023/01/06 03:36:59;;;;;;;2.15;1.65;;;13.40;79.80;;;;;;5058403;28;20060;-82
2023/01/06 03:39:44;;;;;;;1.80;1.52;;;13.40;79.80;;;;;;5058683;28;20039;-82
2023/01/06 03:45:49;;;;;;;1.77;1.40;;;13.40;79.80;;;;;;5058464;28;20119;-82
2023/01/06 03:48:16;;;;;;;2.33;1.50;;;13.40;79.80;;;;;;5058219;28;20041;-82
2023/01/06 03:51:02;;;;;;;2.25;1.65;;;13.40;79.80;;;;;;5058984;28;20048;-83
2023/01/06 03:54:03;;;;;;;1.30;1.20;;;13.40;79.80;;;;;;5058680;28;20382;-82
2023/01/06 03:57:05;;;;;;;1.60;1.50;;;13.40;79.80;;;;;;5058032;28;20033;-81
2023/01/06 03:59:36;;;;;;;2.72;1.45;;;13.40;79.80;;;;;;5053719;28;20083;-82
2023/01/06 04:02:04;;;;;;;1.30;1.20;;;13.40;79.80;;;;;;5058596;28;20402;-81
2023/01/06 04:04:30;;;;;;;1.40;1.30;;;13.30;79.70;;;;;;5058519;28;20040;-81
2023/01/06 04:06:56;;;;;;;1.48;1.30;;;13.40;79.80;;;;;;5058124;28;20136;-83
2023/01/06 04:09:23;;;;;;;1.77;1.48;;;13.40;79.80;;;;;;5058079;28;20059;-82
2023/01/06 04:14:36;;;;;;;1.38;1.27;;;13.40;79.80;;;;;;5055227;28;20087;-82
2023/01/06 04:17:02;;;;;;;2.20;1.80;;;13.40;79.80;;;;;;5038284;28;20044;-82
2023/01/06 04:19:28;;;;;;;1.45;1.35;;;13.40;79.80;;;;;;5038342;28;20070;-82
2023/01/06 04:21:54;;;;;;;1.42;1.25;;;13.40;79.80;;;;;;5038423;28;20071;-81
2023/01/06 04:24:20;;;;;;;2.30;1.42;;;13.40;79.80;;;;;;5038351;28;20057;-81
2023/01/06 04:26:46;;;;;;;1.77;1.33;;;13.40;79.80;;;;;;5054548;28;20036;-82
2023/01/06 04:29:11;;;;;;;1.85;1.30;;;13.30;79.70;;;;;;5054790;28;20044;-81
2023/01/06 04:31:38;;;;;;;1.48;1.38;;;13.40;79.80;;;;;;5038690;28;20028;-81
2023/01/06 04:34:04;;;;;;;1.55;1.30;;;13.40;79.80;;;;;;5071499;28;20029;-83
2023/01/06 04:36:30;;;;;;;1.70;1.60;;;13.40;79.80;;;;;;5054702;28;20025;-82
2023/01/06 04:38:56;;;;;;;1.95;1.35;;;13.40;79.80;;;;;;5038468;28;20041;-82
2023/01/06 04:41:22;;;;;;;1.40;1.30;;;13.40;79.80;;;;;;5088430;28;20474;-82
2023/01/06 04:43:48;;;;;;;1.30;1.20;;;13.40;79.80;;;;;;5054349;28;20051;-82
2023/01/06 04:46:14;;;;;;;1.33;1.23;;;13.40;79.70;;;;;;5054551;28;20076;-80
2023/01/06 04:48:40;;;;;;;1.40;1.30;;;13.40;79.70;;;;;;5054591;28;20037;-81
2023/01/06 04:51:08;;;;;;;1.10;1.10;;;13.40;79.70;;;;;;5038115;28;20422;-81
2023/01/06 04:53:40;;;;;;;1.65;1.38;;;13.40;79.80;;;;;;5071311;28;20044;-81
2023/01/06 04:56:08;;;;;;;1.20;1.10;;;13.40;79.70;;;;;;5070785;28;20037;-82
2023/01/06 04:58:35;;;;;;;1.42;1.20;;;13.40;79.70;;;;;;5054050;28;20469;-81
2023/01/06 05:01:09;;;;;;;1.40;1.30;;;13.40;79.70;;;;;;5053640;28;20489;-82
2023/01/06 05:03:35;;;;;;;1.23;1.15;;;13.40;79.70;;;;;;5054017;28;20029;-81
2023/01/06 05:06:03;;;;;;;1.52;1.33;;;13.40;79.70;;;;;;5053699;28;20470;-81
2023/01/06 05:08:30;;;;;;;1.50;1.40;;;13.40;79.70;;;;;;5037651;28;20099;-81
2023/01/06 05:11:06;;;;;;;1.25;1.10;;;13.40;79.70;;;;;;5037298;28;20485;-82
2023/01/06 05:13:33;;;;;;;1.23;1.13;;;13.40;79.70;;;;;;5087546;28;20033;-80
2023/01/06 05:15:58;;;;;;;1.20;1.08;;;13.40;79.70;;;;;;5054977;28;20024;-82
2023/01/06 05:18:24;;;;;;;1.30;1.20;;;13.40;79.70;;;;;;5070359;28;20056;-81
2023/01/06 05:20:51;;;;;;;1.33;1.20;;;13.40;79.70;;;;;;5037431;28;20029;-82
2023/01/06 05:23:17;;;;;;;1.63;1.40;;;13.30;79.60;;;;;;5069107;28;20037;-83
2023/01/06 05:25:42;;;;;;;1.30;1.20;;;13.40;79.70;;;;;;5053428;28;20017;-82
2023/01/06 05:28:08;;;;;;;1.52;1.27;;;13.30;79.70;;;;;;5071016;28;20465;-82
2023/01/06 05:30:34;;;;;;;1.40;1.30;;;13.30;79.70;;;;;;5037187;28;20028;-81
2023/01/06 05:32:59;;;;;;;1.15;1.15;;;13.40;79.70;;;;;;5053407;28;20488;-82
2023/01/06 05:35:25;;;;;;;1.23;1.15;;;13.40;79.70;;;;;;5036986;28;20032;-82
2023/01/06 05:37:53;;;;;;;1.70;1.50;;;13.40;79.70;;;;;;5069943;28;20493;-82
2023/01/06 05:40:19;;;;;;;1.10;1.00;;;13.30;79.70;;;;;;5036897;28;20025;-84
2023/01/06 05:42:45;;;;;;;1.48;1.23;;;13.40;79.70;;;;;;5036756;28;20031;-81
2023/01/06 05:45:11;;;;;;;1.20;1.10;;;13.40;79.70;;;;;;5053139;28;20032;-81
2023/01/06 05:47:37;;;;;;;1.85;1.30;;;13.40;79.70;;;;;;5053206;28;20025;-82
2023/01/06 05:50:04;;;;;;;1.30;1.20;;;13.40;79.70;;;;;;5037377;28;20472;-81
2023/01/06 05:52:29;;;;;;;1.23;1.13;;;13.40;79.70;;;;;;5053124;28;20108;-82
2023/01/06 05:54:55;;;;;;;1.20;1.10;;;13.30;79.70;;;;;;5052742;28;20512;-81
2023/01/06 05:57:21;;;;;;;1.10;1.10;;;13.30;79.60;;;;;;5052882;28;20044;-82
2023/01/06 05:59:46;;;;;;;1.30;1.20;;;13.30;79.60;;;;;;5053393;28;20190;-80
2023/01/06 06:02:12;;;;;;;1.38;1.20;;;13.30;79.60;;;;;;5053454;28;20117;-82
2023/01/06 06:04:38;;;;;;;1.02;1.02;;;13.40;79.70;;;;;;5054530;28;20033;-80
2023/01/06 06:07:04;;;;;;;1.10;1.05;;;13.40;79.70;;;;;;5070407;28;20098;-81
2023/01/06 06:09:30;;;;;;;1.55;1.27;;;13.40;79.70;;;;;;5036420;28;20025;-81
2023/01/06 06:11:55;;;;;;;1.33;1.00;;;13.40;79.70;;;;;;5053009;28;20436;-80
2023/01/06 06:14:21;;;;;;;1.30;1.15;;;13.30;79.60;;;;;;5053172;28;20025;-81
2023/01/06 06:16:47;;;;;;;1.33;1.20;;;13.40;80.30;;;;;;5069479;28;20432;-81
2023/01/06 06:19:13;;;;;;;1.20;1.10;;;13.40;79.70;;;;;;5068972;28;20033;-82
2023/01/06 06:21:39;;;;;;;1.45;1.20;;;13.40;79.70;;;;;;5036009;28;20056;-81
2023/01/06 06:24:05;;;;;;;1.23;1.13;;;13.40;79.90;;;;;;5085856;28;20414;-82
2023/01/06 06:26:31;;;;;;;1.20;1.10;;;13.40;79.70;;;;;;5053531;28;20116;-82
2023/01/06 06:28:56;;;;;;;1.10;1.10;;;13.40;79.70;;;;;;5053728;28;20060;-82
2023/01/06 06:31:25;;;;;;;1.10;1.10;;;13.40;79.60;;;;;;5085964;28;20067;-82
2023/01/06 06:33:56;;;;;;;1.25;1.00;;;13.40;79.70;;;;;;5069011;28;20059;-82
2023/01/06 06:36:23;;;;;;;1.27;1.23;;;13.40;79.70;;;;;;5053505;28;20055;-81
2023/01/06 06:38:53;;;;;;;1.20;1.20;;;13.40;79.60;;;;;;5035581;28;20082;-81
2023/01/06 06:41:20;;;;;;;1.40;1.30;;;13.40;79.70;;;;;;5053615;28;20041;-82
2023/01/06 06:43:48;;;;;;;1.33;1.23;;;13.40;79.70;;;;;;5035767;28;20481;-82
2023/01/06 06:46:15;;;;;;;1.60;1.20;;;13.40;80.30;;;;;;5052624;28;20526;-81
2023/01/06 06:48:40;;;;;;;1.45;1.20;;;13.40;79.70;;;;;;5035857;28;20446;-82
2023/01/06 06:51:11;;;;;;;1.30;1.20;;;13.40;79.70;;;;;;5035697;28;20033;-82
2023/01/06 06:53:38;;;;;;;1.15;1.10;;;13.40;79.70;;;;;;5053774;28;20469;-82
2023/01/06 06:56:07;;;;;;;1.67;1.15;;;13.40;79.70;;;;;;5069363;28;20025;-82
2023/01/06 06:58:33;;;;;;;1.52;1.20;;;13.40;79.70;;;;;;5035833;28;20478;-83
2023/01/06 07:01:03;;;;;;;1.35;1.25;;;13.40;79.70;;;;;;5085787;28;20110;-82
2023/01/06 07:03:29;;;;;;;1.17;1.15;;;13.40;79.70;;;;;;5053256;28;20037;-81
2023/01/06 07:05:55;;;;;;;1.45;1.27;;;13.40;79.70;;;;;;5052162;28;20362;-81
2023/01/06 07:08:21;;;;;;;1.30;1.20;;;13.40;79.70;;;;;;5036449;28;20039;-82
2023/01/06 07:10:47;;;;;;;1.00;1.00;;;13.40;79.70;;;;;;5069342;28;20442;-81
2023/01/06 07:13:12;;;;;;;1.40;1.30;;;13.40;79.60;;;;;;5068726;28;20040;-80
2023/01/06 07:15:38;;;;;;;1.50;1.40;;;13.40;79.70;;;;;;5051897;28;20025;-81
2023/01/06 07:18:05;;;;;;;1.08;1.05;;;13.40;79.70;;;;;;5034734;28;20407;-80
2023/01/06 07:20:32;;;;;;;1.10;1.10;;;13.40;79.70;;;;;;5052558;28;20028;-80
2023/01/06 07:22:58;;;;;;;1.67;1.10;;;13.40;79.70;;;;;;5052905;28;20032;-80
2023/01/06 07:25:24;;;;;;;1.33;1.23;;;13.40;79.60;;;;;;5052467;28;20033;-80
2023/01/06 07:27:54;;;;;;;1.23;1.13;;;13.40;79.70;;;;;;5085219;28;20112;-80
2023/01/06 07:30:20;;;;;;;1.35;1.10;;;13.40;79.70;;;;;;5051497;28;20060;-80
2023/01/06 07:32:46;;;;;;;1.30;1.20;;;13.40;79.60;;;;;;5051670;28;20029;-80
2023/01/06 07:35:12;;;;;;;1.27;1.17;;;13.40;79.60;;;;;;5035159;28;20034;-80
2023/01/06 07:37:37;;;;;;;1.40;1.30;;;13.40;79.60;;;;;;5034342;28;20036;-78
2023/01/06 07:40:04;;;;;;;1.30;1.20;;;13.40;79.60;;;;;;5051284;28;20082;-78
2023/01/06 07:42:29;;;;;;;1.70;1.30;;;13.40;79.60;;;;;;5084628;28;20028;-78
2023/01/06 07:44:55;;;;;;;1.15;1.15;;;13.40;79.60;;;;;;5035045;28;20104;-79
2023/01/06 07:47:21;;;;;;;1.30;1.20;;;13.40;79.70;;;;;;5053585;28;20060;-79
2023/01/06 07:49:46;;;;;;;1.73;1.30;;;13.40;79.60;;;;;;5055098;28;20151;-78
2023/01/06 07:52:12;;;;;;;1.55;1.40;;;13.40;79.70;;;;;;5071935;28;20072;-77
2023/01/06 07:54:38;;;;;;;1.50;1.40;;;13.40;79.70;;;;;;5055271;28;20036;-78
2023/01/06 07:57:03;;;;;;;1.50;1.33;;;13.40;79.60;;;;;;5055550;28;20029;-80
2023/01/06 07:59:29;;;;;;;1.40;1.30;;;13.40;79.70;;;;;;5039063;28;20092;-76
2023/01/06 08:01:55;;;;;;;1.40;1.30;;;13.40;79.70;;;;;;5071731;28;20138;-78
2023/01/06 08:04:21;;;;;;;1.50;1.40;;;13.40;79.70;;;;;;5038373;28;20083;-80
2023/01/06 08:06:46;;;;;;;1.67;1.50;;;13.40;79.70;;;;;;5071407;28;20035;-81
2023/01/06 08:09:12;;;;;;;1.50;1.40;;;13.40;79.70;;;;;;5054848;28;20037;-79
2023/01/06 08:11:38;;;;;;;1.33;1.27;;;13.40;79.60;;;;;;5054684;28;20108;-78
2023/01/06 08:14:04;;;;;;;1.52;1.42;;;13.40;79.70;;;;;;5055929;28;20033;-77
2023/01/06 08:16:29;;;;;;;2.47;1.70;;;13.40;79.70;;;;;;5038289;28;20063;-78
2023/01/06 08:18:55;;;;;;;1.63;1.52;;;13.40;79.70;;;;;;5071720;28;20084;-78
2023/01/06 08:21:21;;;;;;;1.80;1.67;;;13.40;79.70;;;;;;5056011;28;20052;-79
2023/01/06 08:23:47;;;;;;;1.85;1.55;;;13.40;79.70;;;;;;5038317;28;20480;-79
2023/01/06 08:26:15;;;;;;;1.70;1.52;;;13.40;79.70;;;;;;5037887;28;20021;-78
2023/01/06 08:28:42;;;;;;;1.80;1.65;;;13.40;79.70;;;;;;5071398;28;20492;-78
2023/01/06 08:31:15;;;;;;;1.60;1.50;;;13.40;79.70;;;;;;5038126;28;20033;-79
2023/01/06 08:33:41;;;;;;;1.80;1.70;;;13.40;79.70;;;;;;5054465;28;20108;-79
2023/01/06 08:36:08;;;;;;;1.90;1.70;;;13.40;79.70;;;;;;5071249;28;20419;-78
2023/01/06 08:38:35;;;;;;;1.83;1.73;;;13.40;79.70;;;;;;5054574;28;20037;-78
2023/01/06 08:41:02;;;;;;;2.50;1.80;;;13.40;79.70;;;;;;5038373;28;20122;-79
2023/01/06 08:43:31;;;;;;;2.30;1.60;;;13.40;79.80;;;;;;5038000;28;20029;-79
2023/01/06 08:46:02;;;;;;;1.80;1.70;;;13.40;79.80;;;;;;5055394;28;20033;-79
2023/01/06 08:48:29;;;;;;;1.80;1.70;;;13.40;79.80;;;;;;5054564;28;20438;-79
2023/01/06 08:50:55;;;;;;;1.80;1.70;;;13.40;79.70;;;;;;5054045;28;20078;-80
2023/01/06 08:53:21;;;;;;;1.80;1.70;;;13.40;79.70;;;;;;5054095;28;20041;-80
2023/01/06 08:55:47;;;;;;;1.80;1.70;;;13.40;79.80;;;;;;5055526;28;20524;-80
2023/01/06 08:58:13;;;;;;;1.80;1.70;;;13.40;79.80;;;;;;5037182;28;20033;-80
2023/01/06 09:00:41;;;;;;;2.10;1.80;;;13.40;79.80;;;;;;5037558;28;20048;-80
2023/01/06 09:03:08;;;;;;;1.80;1.70;;;13.40;79.80;;;;;;5055366;28;20029;-81
2023/01/06 09:05:34;;;;;;;1.88;1.70;;;13.30;79.80;;;;;;5037443;28;20037;-80
2023/01/06 09:07:59;;;;;;;1.80;1.70;;;13.40;79.80;;;;;;5054430;28;20028;-80
2023/01/06 09:10:25;;;;;;;2.38;2.00;;;13.40;79.80;;;;;;5054197;28;20419;-81
2023/01/06 09:12:51;;;;;;;1.92;1.73;;;13.40;79.80;;;;;;5037719;28;20072;-80
2023/01/06 09:15:17;;;;;;;1.98;1.88;;;13.40;79.80;;;;;;5054070;28;20454;-80
2023/01/06 09:17:43;;;;;;;2.35;2.15;;;13.40;79.80;;;;;;5037005;28;20124;-81
2023/01/06 09:20:09;;;;;;;1.83;1.73;;;13.40;79.80;;;;;;5037446;28;20025;-80
2023/01/06 09:22:36;;;;;;;2.10;1.90;;;13.40;79.80;;;;;;5053836;28;20039;-81
2023/01/06 09:25:02;;;;;;;1.80;1.70;;;13.40;79.80;;;;;;5037153;28;20020;-81
2023/01/06 09:27:28;;;;;;;2.05;1.85;;;13.40;79.80;;;;;;5070327;28;20386;-80
2023/01/06 09:29:53;;;;;;;2.03;1.85;;;13.40;79.80;;;;;;5087168;28;20029;-80
2023/01/06 09:32:19;;;;;;;1.98;1.83;;;13.40;79.80;;;;;;5037190;28;20033;-80
2023/01/06 09:34:45;;;;;;;1.95;1.80;;;13.40;79.80;;;;;;5054412;28;20040;-81
2023/01/06 09:37:11;;;;;;;2.10;1.90;;;13.40;79.80;;;;;;5086675;28;20025;-79
2023/01/06 09:39:36;;;;;;;1.85;1.75;;;13.40;79.70;;;;;;5054215;28;20041;-80
2023/01/06 09:42:33;;;;;;;1.65;1.55;;;13.40;79.80;;;;;;5086586;28;20021;-80
2023/01/06 09:45:11;;;;;;;1.70;1.60;;;13.40;79.80;;;;;;5053074;28;20025;-79
2023/01/06 09:47:43;;;;;;;1.80;1.70;;;13.40;79.80;;;;;;5070687;28;20021;-80
2023/01/06 09:50:31;;;;;;;2.20;1.83;;;13.40;79.80;;;;;;5053065;28;20029;-81
2023/01/06 09:53:04;;;;;;;1.80;1.60;;;13.40;79.80;;;;;;5070051;28;20024;-81
2023/01/06 09:55:32;;;;;;;1.67;1.58;;;13.40;79.80;;;;;;5054433;28;20029;-80
2023/01/06 09:58:14;;;;;;;1.90;1.70;;;13.40;79.80;;;;;;5053174;28;20544;-78
2023/01/06 10:00:50;;;;;;;1.52;1.42;;;13.40;79.70;;;;;;5054766;28;20099;-80
2023/01/06 10:03:24;;;;;;;1.98;1.77;;;13.40;79.70;;;;;;5069580;28;20040;-80
2023/01/06 10:06:02;;;;;;;1.80;1.70;;;13.40;79.70;;;;;;5053119;28;20021;-80
2023/01/06 10:08:52;;;;;;;1.98;1.58;;;13.40;79.80;;;;;;5052630;28;20044;-80
2023/01/06 10:11:25;;;;;;;1.70;1.60;;;13.40;79.80;;;;;;5052802;28;20082;-80
2023/01/06 10:13:52;;;;;;;1.95;1.60;;;13.40;79.80;;;;;;5052772;28;20051;-80
2023/01/06 10:16:41;;;;;;;2.10;1.67;;;13.40;79.80;;;;;;5054560;28;20025;-80
2023/01/06 10:19:18;;;;;;;1.70;1.60;;;13.40;79.90;;;;;;5052008;28;20049;-79
2023/01/06 10:22:01;;;;;;;1.60;1.50;;;13.40;79.80;;;;;;5086622;28;20033;-80
2023/01/06 10:25:05;;;;;;;1.60;1.50;;;13.40;79.90;;;;;;5053420;28;20021;-80
2023/01/06 10:27:45;;;;;;;1.60;1.50;;;13.40;79.90;;;;;;5053633;28;20028;-80
2023/01/06 10:30:52;;;;;;;1.70;1.60;;;13.40;79.80;;;;;;5052776;28;20432;-80
2023/01/06 10:33:26;;;;;;;2.40;1.70;;;13.40;79.80;;;;;;5051514;28;20025;-80
2023/01/06 10:35:54;;;;;;;2.05;1.63;;;13.40;79.80;;;;;;5033285;28;20068;-80
2023/01/06 10:38:44;;;;;;;1.50;1.40;;;13.40;79.80;;;;;;5052358;28;20470;-81
2023/01/06 10:41:47;;;;;;;2.15;1.63;;;13.40;79.90;;;;;;5054504;28;20493;-80
2023/01/06 10:44:13;;;;;;;3.20;1.35;;;13.40;79.90;;;;;;5053166;28;20369;-79
2023/01/06 10:46:40;;;;;;;1.55;1.40;;;13.40;79.80;;;;;;5053211;28;20099;-79
2023/01/06 10:49:15;;;;;;;1.42;1.33;;;13.40;79.80;;;;;;5069667;28;20158;-80
2023/01/06 10:51:44;;;;;;;1.40;1.30;;;13.40;79.90;;;;;;5052523;28;20040;-80
2023/01/06 10:54:13;;;;;;;1.55;1.45;;;13.40;79.90;;;;;;5052371;28;20025;-80
2023/01/06 10:56:43;;;;;;;2.00;1.42;;;13.40;79.90;;;;;;5052499;28;20056;-80
2023/01/06 10:59:10;;;;;;;1.63;1.40;;;13.40;79.90;;;;;;5052079;28;20504;-79
2023/01/06 11:01:50;;;;;;;2.08;1.65;;;13.40;79.90;;;;;;5051765;28;20199;-80
2023/01/06 11:04:18;;;;;;;1.60;1.40;;;13.40;80.00;;;;;;5053019;28;20032;-81
2023/01/06 11:06:53;;;;;;;2.55;1.40;;;13.40;79.90;;;;;;5069075;28;20083;-80
2023/01/06 11:09:39;;;;;;;1.55;1.40;;;13.40;79.90;;;;;;5052501;28;20112;-80
2023/01/06 11:12:21;;;;;;;1.80;1.38;;;13.40;80.00;;;;;;5052085;28;20025;-80
2023/01/06 11:15:01;;;;;;;1.63;1.33;;;13.40;79.90;;;;;;5052349;28;20037;-81
2023/01/06 11:17:28;;;;;;;1.45;1.25;;;13.40;80.00;;;;;;5052212;28;20143;-80
2023/01/06 11:20:31;;;;;;;1.25;1.15;;;13.40;79.90;;;;;;5053185;28;20036;-80
2023/01/06 11:23:19;;;;;;;1.67;1.23;;;13.40;80.00;;;;;;5056045;28;20040;-81
2023/01/06 11:26:00;;;;;;;1.65;1.30;;;13.30;80.00;;;;;;5073021;28;20059;-80
2023/01/06 11:28:25;;;;;;;1.23;1.08;;;13.40;80.00;;;;;;5056224;28;20040;-81
2023/01/06 11:31:13;;;;;;;1.98;1.27;;;13.40;80.00;;;;;;5039234;28;20448;-80
2023/01/06 11:34:17;;;;;;;1.30;1.13;;;13.40;80.00;;;;;;5055714;28;20073;-81
2023/01/06 11:36:47;;;;;;;1.33;1.10;;;13.40;80.10;;;;;;5052910;28;20480;-80
2023/01/06 11:39:20;;;;;;;1.33;1.17;;;13.40;80.00;;;;;;5056590;28;20488;-80
2023/01/06 11:41:48;;;;;;;1.13;1.13;;;13.40;80.10;;;;;;5057750;28;20037;-81
2023/01/06 11:44:36;;;;;;;2.50;1.20;;;13.40;80.10;;;;;;5088999;28;20063;-81
2023/01/06 11:47:12;;;;;;;1.45;1.20;;;13.40;80.10;;;;;;5055844;28;20035;-80
2023/01/06 11:49:53;;;;;;;1.67;1.23;;;13.40;80.10;;;;;;5057566;28;20519;-81
2023/01/06 11:52:20;;;;;;;2.38;1.30;;;13.40;80.20;;;;;;5056773;28;20047;-80
2023/01/06 11:54:58;;;;;;;0.95;0.93;;;13.40;80.10;;;;;;5055776;28;20029;-81
2023/01/06 11:57:52;;;;;;;1.17;1.08;;;13.40;80.20;;;;;;5055684;28;20025;-79
2023/01/06 12:00:33;;;;;;;1.20;1.00;;;13.40;80.10;;;;;;5055135;28;20040;-80
2023/01/06 12:03:21;;;;;;;1.65;0.95;;;13.40;80.10;;;;;;5056327;28;20035;-81
2023/01/06 12:06:03;;;;;;;1.38;1.00;;;13.40;80.10;;;;;;5071662;28;20111;-80
2023/01/06 12:08:48;;;;;;;1.73;1.10;;;13.40;80.10;;;;;;5055402;28;20470;-80
2023/01/06 12:11:28;;;;;;;1.20;1.10;;;13.40;80.10;;;;;;5055138;28;20033;-80
2023/01/06 12:13:54;;;;;;;1.08;1.00;;;13.50;80.10;;;;;;5055045;28;20029;-80
2023/01/06 12:16:59;;;;;;;1.30;1.10;;;13.40;80.10;;;;;;5055265;28;20186;-78
2023/01/06 12:19:37;;;;;;;1.20;1.10;;;13.40;80.20;;;;;;5055923;28;20069;-81
2023/01/06 12:22:04;;;;;;;1.67;1.30;;;13.40;80.10;;;;;;5054673;28;20025;-81
2023/01/06 12:24:32;;;;;;;1.55;1.02;;;13.50;80.10;;;;;;5038034;28;20052;-80
2023/01/06 12:27:03;;;;;;;1.02;0.90;;;13.50;80.20;;;;;;5055762;28;20041;-81
2023/01/06 12:29:30;;;;;;;1.45;1.10;;;13.50;80.20;;;;;;5054855;28;20068;-81
2023/01/06 12:32:09;;;;;;;1.17;1.08;;;13.50;80.10;;;;;;5037755;28;20095;-81
2023/01/06 12:34:39;;;;;;;1.02;1.00;;;13.50;80.20;;;;;;5054382;28;20036;-81
2023/01/06 12:37:30;;;;;;;1.13;1.02;;;13.50;80.10;;;;;;5055464;28;20029;-83
2023/01/06 12:40:21;;;;;;;2.13;1.00;;;13.50;80.20;;;;;;5054735;28;20073;-82
2023/01/06 12:43:08;;;;;;;1.27;1.00;;;13.50;80.10;;;;;;5056270;28;20108;-84
2023/01/06 12:45:39;;;;;;;1.45;1.17;;;13.50;80.20;;;;;;5055099;28;20032;-77
2023/01/06 12:48:18;;;;;;;1.30;1.20;;;13.60;80.20;;;;;;5054163;28;20059;-80
2023/01/06 12:50:50;;;;;;;0.90;0.90;;;13.60;80.20;;;;;;5071295;28;20112;-80
2023/01/06 12:53:27;;;;;;;1.52;1.15;;;13.60;80.20;;;;;;5054503;28;20032;-81
2023/01/06 12:56:02;;;;;;;2.10;1.10;;;13.60;80.20;;;;;;5053843;28;20033;-80
2023/01/06 12:59:03;;;;;;;1.10;1.00;;;13.60;80.20;;;;;;5053661;28;20087;-79
2023/01/06 13:01:40;;;;;;;1.08;1.00;;;13.60;80.20;;;;;;5053977;28;20052;-80
2023/01/06 13:04:35;;;;;;;1.85;1.00;;;13.60;80.20;;;;;;5055056;28;20210;-80
2023/01/06 13:07:29;;;;;;;1.95;1.20;;;13.60;80.20;;;;;;5036775;28;20037;-81
2023/01/06 13:10:20;;;;;;;0.90;0.90;;;13.70;80.20;;;;;;5055048;28;20025;-80
2023/01/06 13:12:55;;;;;;;1.23;1.00;;;13.70;80.20;;;;;;5054931;28;20500;-80
2023/01/06 13:15:27;;;;;;;2.00;1.25;;;13.70;80.20;;;;;;5053941;28;20051;-80
2023/01/06 13:18:04;;;;;;;1.40;1.10;;;13.70;80.10;;;;;;5054901;28;20033;-82
2023/01/06 13:20:50;;;;;;;1.83;1.00;;;13.70;80.10;;;;;;5055162;28;20048;-81